sensor_id;sensor_type;location;lat;lon;timestamp;P1;durP1;ratioP1;P2;durP2;ratioP2
72801;SDS011;61891;55.818;37.084;2022-12-18T00:01:56;9.52;;;3.70;;
72801;SDS011;61891;55.818;37.084;2022-12-18T00:04:23;9.50;;;4.20;;
72801;SDS011;61891;55.818;37.084;2022-12-18T00:06:50;9.68;;;3.47;;
72801;SDS011;61891;55.818;37.084;2022-12-18T00:09:16;8.93;;;3.67;;
72801;SDS011;61891;55.818;37.084;2022-12-18T00:11:42;9.70;;;4.45;;
72801;SDS011;61891;55.818;37.084;2022-12-18T00:14:08;8.05;;;3.55;;
72801;SDS011;61891;55.818;37.084;2022-12-18T00:16:36;8.55;;;3.83;;
72801;SDS011;61891;55.818;37.084;2022-12-18T00:19:02;8.75;;;3.83;;
72801;SDS011;61891;55.818;37.084;2022-12-18T00:21:29;7.97;;;3.85;;
72801;SDS011;61891;55.818;37.084;2022-12-18T00:23:56;7.55;;;3.42;;
72801;SDS011;61891;55.818;37.084;2022-12-18T00:28:55;8.07;;;3.53;;
72801;SDS011;61891;55.818;37.084;2022-12-18T00:31:24;8.40;;;3.60;;
72801;SDS011;61891;55.818;37.084;2022-12-18T00:33:55;6.82;;;3.28;;
72801;SDS011;61891;55.818;37.084;2022-12-18T00:36:22;7.72;;;3.33;;
72801;SDS011;61891;55.818;37.084;2022-12-18T00:38:51;7.57;;;3.65;;
72801;SDS011;61891;55.818;37.084;2022-12-18T00:41:19;9.45;;;3.92;;
72801;SDS011;61891;55.818;37.084;2022-12-18T00:44:04;7.38;;;3.15;;
72801;SDS011;61891;55.818;37.084;2022-12-18T00:46:31;6.47;;;3.00;;
72801;SDS011;61891;55.818;37.084;2022-12-18T00:48:57;7.88;;;3.58;;
72801;SDS011;61891;55.818;37.084;2022-12-18T00:51:23;8.05;;;3.67;;
72801;SDS011;61891;55.818;37.084;2022-12-18T00:53:50;6.57;;;2.65;;
72801;SDS011;61891;55.818;37.084;2022-12-18T00:56:16;7.88;;;3.05;;
72801;SDS011;61891;55.818;37.084;2022-12-18T00:58:41;8.43;;;3.65;;
72801;SDS011;61891;55.818;37.084;2022-12-18T01:01:07;6.55;;;3.28;;
72801;SDS011;61891;55.818;37.084;2022-12-18T01:03:34;8.20;;;3.88;;
72801;SDS011;61891;55.818;37.084;2022-12-18T01:06:05;6.35;;;2.92;;
72801;SDS011;61891;55.818;37.084;2022-12-18T01:08:34;6.63;;;2.92;;
72801;SDS011;61891;55.818;37.084;2022-12-18T01:11:06;7.60;;;3.50;;
72801;SDS011;61891;55.818;37.084;2022-12-18T01:13:33;7.43;;;3.58;;
72801;SDS011;61891;55.818;37.084;2022-12-18T01:15:59;6.85;;;3.42;;
72801;SDS011;61891;55.818;37.084;2022-12-18T01:18:25;9.00;;;3.83;;
72801;SDS011;61891;55.818;37.084;2022-12-18T01:20:50;8.27;;;4.20;;
72801;SDS011;61891;55.818;37.084;2022-12-18T01:23:16;6.93;;;3.60;;
72801;SDS011;61891;55.818;37.084;2022-12-18T01:25:42;7.60;;;3.63;;
72801;SDS011;61891;55.818;37.084;2022-12-18T01:28:08;8.25;;;3.58;;
72801;SDS011;61891;55.818;37.084;2022-12-18T01:30:34;7.85;;;3.35;;
72801;SDS011;61891;55.818;37.084;2022-12-18T01:33:00;7.75;;;3.92;;
72801;SDS011;61891;55.818;37.084;2022-12-18T01:35:26;7.82;;;3.50;;
72801;SDS011;61891;55.818;37.084;2022-12-18T01:37:55;7.45;;;4.28;;
72801;SDS011;61891;55.818;37.084;2022-12-18T01:40:22;8.23;;;3.78;;
72801;SDS011;61891;55.818;37.084;2022-12-18T01:42:53;6.35;;;3.22;;
72801;SDS011;61891;55.818;37.084;2022-12-18T01:48:07;7.95;;;4.13;;
72801;SDS011;61891;55.818;37.084;2022-12-18T01:50:36;9.93;;;4.00;;
72801;SDS011;61891;55.818;37.084;2022-12-18T01:53:06;7.93;;;3.70;;
72801;SDS011;61891;55.818;37.084;2022-12-18T01:55:37;4.78;;;2.75;;
72801;SDS011;61891;55.818;37.084;2022-12-18T01:58:08;7.85;;;3.65;;
72801;SDS011;61891;55.818;37.084;2022-12-18T02:00:35;7.18;;;3.13;;
72801;SDS011;61891;55.818;37.084;2022-12-18T02:03:00;8.95;;;3.75;;
72801;SDS011;61891;55.818;37.084;2022-12-18T02:08:39;7.75;;;3.30;;
72801;SDS011;61891;55.818;37.084;2022-12-18T02:16:34;7.22;;;2.88;;
72801;SDS011;61891;55.818;37.084;2022-12-18T02:19:16;6.72;;;2.67;;
72801;SDS011;61891;55.818;37.084;2022-12-18T02:24:44;8.25;;;3.75;;
72801;SDS011;61891;55.818;37.084;2022-12-18T02:27:26;7.40;;;3.08;;
72801;SDS011;61891;55.818;37.084;2022-12-18T02:29:55;10.40;;;3.67;;
72801;SDS011;61891;55.818;37.084;2022-12-18T02:32:44;8.60;;;3.33;;
72801;SDS011;61891;55.818;37.084;2022-12-18T02:35:16;6.75;;;3.08;;
72801;SDS011;61891;55.818;37.084;2022-12-18T02:37:50;7.90;;;3.30;;
72801;SDS011;61891;55.818;37.084;2022-12-18T02:40:19;6.82;;;2.95;;
72801;SDS011;61891;55.818;37.084;2022-12-18T02:42:47;6.32;;;2.80;;
72801;SDS011;61891;55.818;37.084;2022-12-18T02:45:16;6.65;;;2.78;;
72801;SDS011;61891;55.818;37.084;2022-12-18T02:47:43;6.68;;;2.90;;
72801;SDS011;61891;55.818;37.084;2022-12-18T02:58:18;7.00;;;2.72;;
72801;SDS011;61891;55.818;37.084;2022-12-18T03:01:13;6.10;;;2.75;;
72801;SDS011;61891;55.818;37.084;2022-12-18T03:03:59;4.45;;;1.83;;
72801;SDS011;61891;55.818;37.084;2022-12-18T03:06:32;5.63;;;2.40;;
72801;SDS011;61891;55.818;37.084;2022-12-18T03:09:04;6.38;;;2.60;;
72801;SDS011;61891;55.818;37.084;2022-12-18T03:11:39;4.32;;;2.00;;
72801;SDS011;61891;55.818;37.084;2022-12-18T03:14:26;5.22;;;2.13;;
72801;SDS011;61891;55.818;37.084;2022-12-18T03:16:57;6.38;;;2.80;;
72801;SDS011;61891;55.818;37.084;2022-12-18T03:19:28;5.10;;;2.10;;
72801;SDS011;61891;55.818;37.084;2022-12-18T03:21:58;6.35;;;2.92;;
72801;SDS011;61891;55.818;37.084;2022-12-18T03:24:34;4.97;;;2.60;;
72801;SDS011;61891;55.818;37.084;2022-12-18T03:27:05;6.38;;;2.60;;
72801;SDS011;61891;55.818;37.084;2022-12-18T03:32:15;5.57;;;2.55;;
72801;SDS011;61891;55.818;37.084;2022-12-18T03:34:53;7.68;;;3.33;;
72801;SDS011;61891;55.818;37.084;2022-12-18T03:37:31;6.47;;;3.03;;
72801;SDS011;61891;55.818;37.084;2022-12-18T03:39:57;4.38;;;2.40;;
72801;SDS011;61891;55.818;37.084;2022-12-18T03:42:37;5.55;;;3.00;;
72801;SDS011;61891;55.818;37.084;2022-12-18T03:45:32;5.20;;;2.58;;
72801;SDS011;61891;55.818;37.084;2022-12-18T03:48:08;4.63;;;1.67;;
72801;SDS011;61891;55.818;37.084;2022-12-18T03:50:48;5.75;;;2.63;;
72801;SDS011;61891;55.818;37.084;2022-12-18T03:55:52;7.20;;;2.90;;
72801;SDS011;61891;55.818;37.084;2022-12-18T03:58:21;6.57;;;2.88;;
72801;SDS011;61891;55.818;37.084;2022-12-18T04:00:58;4.18;;;2.47;;
72801;SDS011;61891;55.818;37.084;2022-12-18T04:03:28;6.60;;;2.70;;
72801;SDS011;61891;55.818;37.084;2022-12-18T04:05:57;4.88;;;2.40;;
72801;SDS011;61891;55.818;37.084;2022-12-18T04:08:27;4.13;;;2.28;;
72801;SDS011;61891;55.818;37.084;2022-12-18T04:11:02;7.50;;;3.30;;
72801;SDS011;61891;55.818;37.084;2022-12-18T04:13:29;6.85;;;2.90;;
72801;SDS011;61891;55.818;37.084;2022-12-18T04:16:02;4.63;;;2.20;;
72801;SDS011;61891;55.818;37.084;2022-12-18T04:18:28;8.05;;;3.60;;
72801;SDS011;61891;55.818;37.084;2022-12-18T04:20:54;5.68;;;2.20;;
72801;SDS011;61891;55.818;37.084;2022-12-18T04:23:21;6.78;;;3.10;;
72801;SDS011;61891;55.818;37.084;2022-12-18T04:25:47;4.45;;;2.25;;
72801;SDS011;61891;55.818;37.084;2022-12-18T04:28:19;6.13;;;2.42;;
72801;SDS011;61891;55.818;37.084;2022-12-18T04:30:46;6.22;;;2.42;;
72801;SDS011;61891;55.818;37.084;2022-12-18T04:33:16;5.97;;;2.53;;
72801;SDS011;61891;55.818;37.084;2022-12-18T04:38:08;6.90;;;2.97;;
72801;SDS011;61891;55.818;37.084;2022-12-18T04:40:36;3.80;;;2.03;;
72801;SDS011;61891;55.818;37.084;2022-12-18T04:43:09;3.28;;;2.05;;
72801;SDS011;61891;55.818;37.084;2022-12-18T04:45:35;6.55;;;2.72;;
72801;SDS011;61891;55.818;37.084;2022-12-18T04:48:01;4.68;;;2.28;;
72801;SDS011;61891;55.818;37.084;2022-12-18T04:50:28;7.55;;;2.70;;
72801;SDS011;61891;55.818;37.084;2022-12-18T04:52:54;5.25;;;2.42;;
72801;SDS011;61891;55.818;37.084;2022-12-18T04:55:20;7.57;;;3.25;;
72801;SDS011;61891;55.818;37.084;2022-12-18T04:57:49;5.35;;;2.55;;
72801;SDS011;61891;55.818;37.084;2022-12-18T05:00:15;5.90;;;2.92;;
72801;SDS011;61891;55.818;37.084;2022-12-18T05:02:41;6.60;;;2.88;;
72801;SDS011;61891;55.818;37.084;2022-12-18T05:05:07;8.23;;;3.17;;
72801;SDS011;61891;55.818;37.084;2022-12-18T05:07:33;5.20;;;2.25;;
72801;SDS011;61891;55.818;37.084;2022-12-18T05:09:58;7.30;;;3.10;;
72801;SDS011;61891;55.818;37.084;2022-12-18T05:12:24;8.38;;;3.83;;
72801;SDS011;61891;55.818;37.084;2022-12-18T05:14:50;7.82;;;3.22;;
72801;SDS011;61891;55.818;37.084;2022-12-18T05:17:16;6.10;;;3.08;;
72801;SDS011;61891;55.818;37.084;2022-12-18T05:19:42;6.20;;;2.63;;
72801;SDS011;61891;55.818;37.084;2022-12-18T05:22:07;7.43;;;3.20;;
72801;SDS011;61891;55.818;37.084;2022-12-18T05:24:34;5.90;;;2.85;;
72801;SDS011;61891;55.818;37.084;2022-12-18T05:27:00;6.20;;;3.08;;
72801;SDS011;61891;55.818;37.084;2022-12-18T05:29:25;10.57;;;2.95;;
72801;SDS011;61891;55.818;37.084;2022-12-18T05:31:51;7.35;;;2.80;;
72801;SDS011;61891;55.818;37.084;2022-12-18T05:34:17;5.28;;;2.45;;
72801;SDS011;61891;55.818;37.084;2022-12-18T05:36:42;7.38;;;2.55;;
72801;SDS011;61891;55.818;37.084;2022-12-18T05:39:08;5.93;;;2.33;;
72801;SDS011;61891;55.818;37.084;2022-12-18T05:41:34;5.60;;;2.63;;
72801;SDS011;61891;55.818;37.084;2022-12-18T05:44:00;7.18;;;3.25;;
72801;SDS011;61891;55.818;37.084;2022-12-18T05:46:26;5.28;;;2.70;;
72801;SDS011;61891;55.818;37.084;2022-12-18T05:48:51;5.00;;;2.00;;
72801;SDS011;61891;55.818;37.084;2022-12-18T05:51:18;4.05;;;2.00;;
72801;SDS011;61891;55.818;37.084;2022-12-18T05:53:46;5.07;;;2.15;;
72801;SDS011;61891;55.818;37.084;2022-12-18T05:56:13;8.63;;;3.03;;
72801;SDS011;61891;55.818;37.084;2022-12-18T05:58:41;6.20;;;2.90;;
72801;SDS011;61891;55.818;37.084;2022-12-18T06:01:08;7.47;;;3.53;;
72801;SDS011;61891;55.818;37.084;2022-12-18T06:03:45;4.80;;;2.28;;
72801;SDS011;61891;55.818;37.084;2022-12-18T06:06:17;6.18;;;2.63;;
72801;SDS011;61891;55.818;37.084;2022-12-18T06:08:43;6.95;;;2.50;;
72801;SDS011;61891;55.818;37.084;2022-12-18T06:11:10;6.82;;;3.15;;
72801;SDS011;61891;55.818;37.084;2022-12-18T06:13:36;5.85;;;2.40;;
72801;SDS011;61891;55.818;37.084;2022-12-18T06:16:03;4.72;;;2.83;;
72801;SDS011;61891;55.818;37.084;2022-12-18T06:18:33;8.93;;;4.13;;
72801;SDS011;61891;55.818;37.084;2022-12-18T06:21:01;5.78;;;2.92;;
72801;SDS011;61891;55.818;37.084;2022-12-18T06:23:27;6.55;;;2.63;;
72801;SDS011;61891;55.818;37.084;2022-12-18T06:25:53;4.00;;;2.45;;
72801;SDS011;61891;55.818;37.084;2022-12-18T06:28:19;7.28;;;2.45;;
72801;SDS011;61891;55.818;37.084;2022-12-18T06:30:47;6.82;;;2.63;;
72801;SDS011;61891;55.818;37.084;2022-12-18T06:33:13;7.13;;;2.67;;
72801;SDS011;61891;55.818;37.084;2022-12-18T06:35:40;5.80;;;2.60;;
72801;SDS011;61891;55.818;37.084;2022-12-18T06:38:05;4.57;;;1.80;;
72801;SDS011;61891;55.818;37.084;2022-12-18T06:40:31;7.90;;;2.75;;
72801;SDS011;61891;55.818;37.084;2022-12-18T06:42:57;4.07;;;2.20;;
72801;SDS011;61891;55.818;37.084;2022-12-18T06:45:23;6.43;;;2.83;;
72801;SDS011;61891;55.818;37.084;2022-12-18T06:47:49;3.70;;;2.03;;
72801;SDS011;61891;55.818;37.084;2022-12-18T06:50:15;5.07;;;2.45;;
72801;SDS011;61891;55.818;37.084;2022-12-18T06:52:41;7.07;;;3.17;;
72801;SDS011;61891;55.818;37.084;2022-12-18T06:55:09;6.43;;;2.72;;
72801;SDS011;61891;55.818;37.084;2022-12-18T06:57:35;5.65;;;2.63;;
72801;SDS011;61891;55.818;37.084;2022-12-18T07:00:03;5.90;;;3.08;;
72801;SDS011;61891;55.818;37.084;2022-12-18T07:02:32;3.80;;;1.90;;
72801;SDS011;61891;55.818;37.084;2022-12-18T07:04:58;4.10;;;1.88;;
72801;SDS011;61891;55.818;37.084;2022-12-18T07:07:24;6.85;;;2.58;;
72801;SDS011;61891;55.818;37.084;2022-12-18T07:09:50;4.97;;;2.42;;
72801;SDS011;61891;55.818;37.084;2022-12-18T07:12:16;7.30;;;2.90;;
72801;SDS011;61891;55.818;37.084;2022-12-18T07:14:42;6.18;;;2.78;;
72801;SDS011;61891;55.818;37.084;2022-12-18T07:17:08;5.40;;;2.33;;
72801;SDS011;61891;55.818;37.084;2022-12-18T07:19:33;4.95;;;2.47;;
72801;SDS011;61891;55.818;37.084;2022-12-18T07:21:59;7.20;;;2.85;;
72801;SDS011;61891;55.818;37.084;2022-12-18T07:24:25;6.85;;;3.33;;
72801;SDS011;61891;55.818;37.084;2022-12-18T07:26:51;4.95;;;2.03;;
72801;SDS011;61891;55.818;37.084;2022-12-18T07:29:17;6.47;;;2.92;;
72801;SDS011;61891;55.818;37.084;2022-12-18T07:31:43;3.42;;;1.75;;
72801;SDS011;61891;55.818;37.084;2022-12-18T07:34:12;5.47;;;2.67;;
72801;SDS011;61891;55.818;37.084;2022-12-18T07:36:39;7.50;;;3.10;;
72801;SDS011;61891;55.818;37.084;2022-12-18T07:39:04;6.40;;;3.05;;
72801;SDS011;61891;55.818;37.084;2022-12-18T07:41:30;5.57;;;2.70;;
72801;SDS011;61891;55.818;37.084;2022-12-18T07:44:02;6.80;;;3.03;;
72801;SDS011;61891;55.818;37.084;2022-12-18T07:46:28;6.35;;;2.67;;
72801;SDS011;61891;55.818;37.084;2022-12-18T07:48:53;5.93;;;2.33;;
72801;SDS011;61891;55.818;37.084;2022-12-18T07:51:19;6.32;;;2.75;;
72801;SDS011;61891;55.818;37.084;2022-12-18T07:53:45;6.57;;;2.63;;
72801;SDS011;61891;55.818;37.084;2022-12-18T07:56:12;4.10;;;1.77;;
72801;SDS011;61891;55.818;37.084;2022-12-18T07:58:38;6.20;;;2.45;;
72801;SDS011;61891;55.818;37.084;2022-12-18T08:01:05;6.93;;;2.40;;
72801;SDS011;61891;55.818;37.084;2022-12-18T08:03:32;5.47;;;2.65;;
72801;SDS011;61891;55.818;37.084;2022-12-18T08:05:59;5.25;;;2.35;;
72801;SDS011;61891;55.818;37.084;2022-12-18T08:08:25;5.22;;;2.22;;
72801;SDS011;61891;55.818;37.084;2022-12-18T08:10:51;6.20;;;2.47;;
72801;SDS011;61891;55.818;37.084;2022-12-18T08:13:17;5.50;;;2.25;;
72801;SDS011;61891;55.818;37.084;2022-12-18T08:15:42;5.30;;;2.38;;
72801;SDS011;61891;55.818;37.084;2022-12-18T08:18:08;5.10;;;2.22;;
72801;SDS011;61891;55.818;37.084;2022-12-18T08:20:34;5.63;;;2.65;;
72801;SDS011;61891;55.818;37.084;2022-12-18T08:22:59;4.68;;;1.90;;
72801;SDS011;61891;55.818;37.084;2022-12-18T08:25:25;4.65;;;1.90;;
72801;SDS011;61891;55.818;37.084;2022-12-18T08:27:51;5.80;;;2.65;;
72801;SDS011;61891;55.818;37.084;2022-12-18T08:30:17;4.82;;;2.10;;
72801;SDS011;61891;55.818;37.084;2022-12-18T08:32:42;5.78;;;2.85;;
72801;SDS011;61891;55.818;37.084;2022-12-18T08:35:08;6.30;;;2.35;;
72801;SDS011;61891;55.818;37.084;2022-12-18T08:37:34;4.35;;;2.40;;
72801;SDS011;61891;55.818;37.084;2022-12-18T08:39:59;4.05;;;2.25;;
72801;SDS011;61891;55.818;37.084;2022-12-18T08:42:26;5.13;;;2.25;;
72801;SDS011;61891;55.818;37.084;2022-12-18T08:45:10;6.60;;;2.58;;
72801;SDS011;61891;55.818;37.084;2022-12-18T08:47:36;3.97;;;1.92;;
72801;SDS011;61891;55.818;37.084;2022-12-18T08:50:02;4.43;;;2.17;;
72801;SDS011;61891;55.818;37.084;2022-12-18T08:52:30;4.10;;;2.03;;
72801;SDS011;61891;55.818;37.084;2022-12-18T08:54:57;5.25;;;2.20;;
72801;SDS011;61891;55.818;37.084;2022-12-18T08:57:23;5.10;;;2.60;;
72801;SDS011;61891;55.818;37.084;2022-12-18T08:59:49;5.18;;;1.90;;
72801;SDS011;61891;55.818;37.084;2022-12-18T09:02:14;6.47;;;1.92;;
72801;SDS011;61891;55.818;37.084;2022-12-18T09:04:40;5.18;;;1.83;;
72801;SDS011;61891;55.818;37.084;2022-12-18T09:07:06;3.65;;;1.75;;
72801;SDS011;61891;55.818;37.084;2022-12-18T09:09:32;4.03;;;1.67;;
72801;SDS011;61891;55.818;37.084;2022-12-18T09:11:58;4.90;;;2.03;;
72801;SDS011;61891;55.818;37.084;2022-12-18T09:14:23;3.55;;;1.73;;
72801;SDS011;61891;55.818;37.084;2022-12-18T09:16:49;3.42;;;1.27;;
72801;SDS011;61891;55.818;37.084;2022-12-18T09:19:15;4.18;;;1.88;;
72801;SDS011;61891;55.818;37.084;2022-12-18T09:21:40;5.47;;;2.03;;
72801;SDS011;61891;55.818;37.084;2022-12-18T09:24:08;3.05;;;1.63;;
72801;SDS011;61891;55.818;37.084;2022-12-18T09:26:39;3.83;;;2.05;;
72801;SDS011;61891;55.818;37.084;2022-12-18T09:29:05;2.60;;;1.30;;
72801;SDS011;61891;55.818;37.084;2022-12-18T09:31:32;3.75;;;1.98;;
72801;SDS011;61891;55.818;37.084;2022-12-18T09:33:59;5.18;;;2.50;;
72801;SDS011;61891;55.818;37.084;2022-12-18T09:36:24;5.43;;;1.70;;
72801;SDS011;61891;55.818;37.084;2022-12-18T09:38:50;4.93;;;1.77;;
72801;SDS011;61891;55.818;37.084;2022-12-18T09:44:35;4.80;;;1.63;;
72801;SDS011;61891;55.818;37.084;2022-12-18T09:47:07;3.88;;;1.85;;
72801;SDS011;61891;55.818;37.084;2022-12-18T09:49:42;4.55;;;1.85;;
72801;SDS011;61891;55.818;37.084;2022-12-18T09:57:54;4.57;;;1.83;;
72801;SDS011;61891;55.818;37.084;2022-12-18T10:00:24;4.53;;;1.92;;
72801;SDS011;61891;55.818;37.084;2022-12-18T10:02:51;3.42;;;1.70;;
72801;SDS011;61891;55.818;37.084;2022-12-18T10:05:28;2.78;;;1.27;;
72801;SDS011;61891;55.818;37.084;2022-12-18T10:08:02;4.60;;;2.00;;
72801;SDS011;61891;55.818;37.084;2022-12-18T10:10:46;5.22;;;1.92;;
72801;SDS011;61891;55.818;37.084;2022-12-18T10:16:17;3.65;;;1.58;;
72801;SDS011;61891;55.818;37.084;2022-12-18T10:22:00;4.15;;;2.03;;
72801;SDS011;61891;55.818;37.084;2022-12-18T10:27:12;7.63;;;3.35;;
72801;SDS011;61891;55.818;37.084;2022-12-18T10:29:41;5.45;;;1.92;;
72801;SDS011;61891;55.818;37.084;2022-12-18T10:32:13;4.22;;;1.88;;
72801;SDS011;61891;55.818;37.084;2022-12-18T10:34:47;2.05;;;0.98;;
72801;SDS011;61891;55.818;37.084;2022-12-18T10:37:18;4.97;;;1.50;;
72801;SDS011;61891;55.818;37.084;2022-12-18T10:39:46;4.28;;;1.92;;
72801;SDS011;61891;55.818;37.084;2022-12-18T10:42:30;3.80;;;1.70;;
72801;SDS011;61891;55.818;37.084;2022-12-18T10:47:51;4.45;;;1.90;;
72801;SDS011;61891;55.818;37.084;2022-12-18T10:50:33;4.15;;;2.00;;
72801;SDS011;61891;55.818;37.084;2022-12-18T10:53:03;5.07;;;1.98;;
72801;SDS011;61891;55.818;37.084;2022-12-18T10:55:31;3.60;;;1.20;;
72801;SDS011;61891;55.818;37.084;2022-12-18T11:06:19;4.28;;;1.40;;
72801;SDS011;61891;55.818;37.084;2022-12-18T11:11:52;3.13;;;1.50;;
72801;SDS011;61891;55.818;37.084;2022-12-18T11:14:25;3.60;;;1.38;;
72801;SDS011;61891;55.818;37.084;2022-12-18T11:16:54;5.13;;;1.67;;
72801;SDS011;61891;55.818;37.084;2022-12-18T11:21:56;3.72;;;1.67;;
72801;SDS011;61891;55.818;37.084;2022-12-18T11:24:26;4.65;;;1.88;;
72801;SDS011;61891;55.818;37.084;2022-12-18T11:26:55;4.20;;;1.90;;
72801;SDS011;61891;55.818;37.084;2022-12-18T11:29:31;3.53;;;1.45;;
72801;SDS011;61891;55.818;37.084;2022-12-18T11:34:41;3.65;;;1.58;;
72801;SDS011;61891;55.818;37.084;2022-12-18T11:37:12;4.78;;;1.80;;
72801;SDS011;61891;55.818;37.084;2022-12-18T11:39:55;3.63;;;1.60;;
72801;SDS011;61891;55.818;37.084;2022-12-18T11:43:17;4.28;;;1.30;;
72801;SDS011;61891;55.818;37.084;2022-12-18T11:45:30;6.15;;;1.90;;
72801;SDS011;61891;55.818;37.084;2022-12-18T11:50:41;4.13;;;1.63;;
72801;SDS011;61891;55.818;37.084;2022-12-18T11:53:15;4.95;;;1.40;;
72801;SDS011;61891;55.818;37.084;2022-12-18T11:55:59;3.78;;;1.30;;
72801;SDS011;61891;55.818;37.084;2022-12-18T11:58:47;6.68;;;1.90;;
72801;SDS011;61891;55.818;37.084;2022-12-18T12:01:40;4.15;;;1.85;;
72801;SDS011;61891;55.818;37.084;2022-12-18T12:15:03;5.80;;;2.05;;
72801;SDS011;61891;55.818;37.084;2022-12-18T12:39:56;9.30;;;4.00;;
72801;SDS011;61891;55.818;37.084;2022-12-18T12:42:32;8.32;;;3.30;;
72801;SDS011;61891;55.818;37.084;2022-12-18T12:45:26;12.27;;;4.80;;
72801;SDS011;61891;55.818;37.084;2022-12-18T12:48:00;11.50;;;3.90;;
72801;SDS011;61891;55.818;37.084;2022-12-18T12:50:27;6.13;;;3.42;;
72801;SDS011;61891;55.818;37.084;2022-12-18T12:52:55;12.57;;;5.32;;
72801;SDS011;61891;55.818;37.084;2022-12-18T12:55:23;12.30;;;4.13;;
72801;SDS011;61891;55.818;37.084;2022-12-18T13:00:23;11.65;;;4.28;;
72801;SDS011;61891;55.818;37.084;2022-12-18T13:06:01;5.53;;;2.05;;
72801;SDS011;61891;55.818;37.084;2022-12-18T13:08:51;8.70;;;3.90;;
72801;SDS011;61891;55.818;37.084;2022-12-18T13:14:36;7.35;;;2.92;;
72801;SDS011;61891;55.818;37.084;2022-12-18T13:19:50;9.05;;;3.88;;
72801;SDS011;61891;55.818;37.084;2022-12-18T13:22:34;10.75;;;3.40;;
72801;SDS011;61891;55.818;37.084;2022-12-18T13:25:01;7.15;;;2.75;;
72801;SDS011;61891;55.818;37.084;2022-12-18T13:33:23;2.95;;;1.45;;
72801;SDS011;61891;55.818;37.084;2022-12-18T13:45:45;5.25;;;2.17;;
72801;SDS011;61891;55.818;37.084;2022-12-18T13:48:25;6.88;;;2.17;;
72801;SDS011;61891;55.818;37.084;2022-12-18T13:50:55;4.07;;;1.75;;
72801;SDS011;61891;55.818;37.084;2022-12-18T13:53:47;6.45;;;2.42;;
72801;SDS011;61891;55.818;37.084;2022-12-18T13:56:24;5.75;;;2.03;;
72801;SDS011;61891;55.818;37.084;2022-12-18T14:01:54;5.65;;;1.90;;
72801;SDS011;61891;55.818;37.084;2022-12-18T14:04:23;5.28;;;2.35;;
72801;SDS011;61891;55.818;37.084;2022-12-18T14:06:50;4.75;;;2.00;;
72801;SDS011;61891;55.818;37.084;2022-12-18T14:09:23;5.35;;;2.03;;
72801;SDS011;61891;55.818;37.084;2022-12-18T14:11:51;3.78;;;1.40;;
72801;SDS011;61891;55.818;37.084;2022-12-18T14:14:46;3.35;;;1.23;;
72801;SDS011;61891;55.818;37.084;2022-12-18T14:17:14;3.25;;;1.63;;
72801;SDS011;61891;55.818;37.084;2022-12-18T14:19:42;4.28;;;1.73;;
72801;SDS011;61891;55.818;37.084;2022-12-18T14:22:16;6.22;;;2.08;;
72801;SDS011;61891;55.818;37.084;2022-12-18T14:24:44;2.92;;;1.17;;
72801;SDS011;61891;55.818;37.084;2022-12-18T14:27:20;3.75;;;2.10;;
72801;SDS011;61891;55.818;37.084;2022-12-18T14:29:48;2.85;;;1.42;;
72801;SDS011;61891;55.818;37.084;2022-12-18T14:32:15;5.63;;;2.00;;
72801;SDS011;61891;55.818;37.084;2022-12-18T14:37:12;4.55;;;1.65;;
72801;SDS011;61891;55.818;37.084;2022-12-18T14:39:40;3.55;;;1.58;;
72801;SDS011;61891;55.818;37.084;2022-12-18T14:42:09;4.10;;;1.50;;
72801;SDS011;61891;55.818;37.084;2022-12-18T14:44:36;3.95;;;1.63;;
72801;SDS011;61891;55.818;37.084;2022-12-18T14:47:01;4.85;;;2.35;;
72801;SDS011;61891;55.818;37.084;2022-12-18T14:52:06;5.00;;;2.30;;
72801;SDS011;61891;55.818;37.084;2022-12-18T14:54:45;5.40;;;1.85;;
72801;SDS011;61891;55.818;37.084;2022-12-18T14:57:22;5.00;;;2.08;;
72801;SDS011;61891;55.818;37.084;2022-12-18T14:59:50;4.63;;;2.40;;
72801;SDS011;61891;55.818;37.084;2022-12-18T15:02:23;5.53;;;2.75;;
72801;SDS011;61891;55.818;37.084;2022-12-18T15:07:48;5.25;;;2.50;;
72801;SDS011;61891;55.818;37.084;2022-12-18T15:10:17;4.70;;;2.40;;
72801;SDS011;61891;55.818;37.084;2022-12-18T15:12:47;5.80;;;2.40;;
72801;SDS011;61891;55.818;37.084;2022-12-18T15:18:01;4.93;;;1.83;;
72801;SDS011;61891;55.818;37.084;2022-12-18T15:20:27;4.88;;;1.80;;
72801;SDS011;61891;55.818;37.084;2022-12-18T15:22:53;4.72;;;1.55;;
72801;SDS011;61891;55.818;37.084;2022-12-18T15:25:34;5.72;;;2.42;;
72801;SDS011;61891;55.818;37.084;2022-12-18T15:28:03;2.85;;;1.58;;
72801;SDS011;61891;55.818;37.084;2022-12-18T15:30:57;4.03;;;2.00;;
72801;SDS011;61891;55.818;37.084;2022-12-18T15:33:29;4.93;;;1.85;;
72801;SDS011;61891;55.818;37.084;2022-12-18T15:35:58;4.47;;;1.92;;
72801;SDS011;61891;55.818;37.084;2022-12-18T15:38:25;3.70;;;1.85;;
72801;SDS011;61891;55.818;37.084;2022-12-18T15:40:52;5.63;;;2.10;;
72801;SDS011;61891;55.818;37.084;2022-12-18T15:43:19;6.35;;;2.30;;
72801;SDS011;61891;55.818;37.084;2022-12-18T15:46:10;5.03;;;2.45;;
72801;SDS011;61891;55.818;37.084;2022-12-18T15:48:41;4.22;;;2.28;;
72801;SDS011;61891;55.818;37.084;2022-12-18T15:51:13;9.23;;;3.10;;
72801;SDS011;61891;55.818;37.084;2022-12-18T15:53:41;4.97;;;2.10;;
72801;SDS011;61891;55.818;37.084;2022-12-18T15:56:10;6.90;;;3.15;;
72801;SDS011;61891;55.818;37.084;2022-12-18T15:58:55;4.15;;;1.90;;
72801;SDS011;61891;55.818;37.084;2022-12-18T16:01:22;6.68;;;2.28;;
72801;SDS011;61891;55.818;37.084;2022-12-18T16:03:50;7.35;;;2.10;;
72801;SDS011;61891;55.818;37.084;2022-12-18T16:06:16;4.38;;;1.90;;
72801;SDS011;61891;55.818;37.084;2022-12-18T16:08:42;4.32;;;1.92;;
72801;SDS011;61891;55.818;37.084;2022-12-18T16:11:11;3.88;;;2.10;;
72801;SDS011;61891;55.818;37.084;2022-12-18T16:13:41;4.95;;;2.22;;
72801;SDS011;61891;55.818;37.084;2022-12-18T16:16:08;7.70;;;2.92;;
72801;SDS011;61891;55.818;37.084;2022-12-18T16:18:33;6.13;;;2.72;;
72801;SDS011;61891;55.818;37.084;2022-12-18T16:20:59;8.45;;;3.63;;
72801;SDS011;61891;55.818;37.084;2022-12-18T16:23:25;7.35;;;2.83;;
72801;SDS011;61891;55.818;37.084;2022-12-18T16:25:52;6.95;;;3.13;;
72801;SDS011;61891;55.818;37.084;2022-12-18T16:28:17;6.10;;;2.47;;
72801;SDS011;61891;55.818;37.084;2022-12-18T16:30:43;5.15;;;2.25;;
72801;SDS011;61891;55.818;37.084;2022-12-18T16:33:10;6.50;;;2.65;;
72801;SDS011;61891;55.818;37.084;2022-12-18T16:35:36;6.28;;;3.15;;
72801;SDS011;61891;55.818;37.084;2022-12-18T16:38:02;7.80;;;3.05;;
72801;SDS011;61891;55.818;37.084;2022-12-18T16:40:28;5.88;;;2.85;;
72801;SDS011;61891;55.818;37.084;2022-12-18T16:42:57;9.52;;;4.32;;
72801;SDS011;61891;55.818;37.084;2022-12-18T16:45:22;5.88;;;2.33;;
72801;SDS011;61891;55.818;37.084;2022-12-18T16:47:48;4.50;;;2.25;;
72801;SDS011;61891;55.818;37.084;2022-12-18T16:50:14;8.05;;;2.67;;
72801;SDS011;61891;55.818;37.084;2022-12-18T16:52:40;6.32;;;2.28;;
72801;SDS011;61891;55.818;37.084;2022-12-18T16:55:06;7.32;;;3.22;;
72801;SDS011;61891;55.818;37.084;2022-12-18T16:57:33;7.07;;;2.90;;
72801;SDS011;61891;55.818;37.084;2022-12-18T16:59:59;7.15;;;2.80;;
72801;SDS011;61891;55.818;37.084;2022-12-18T17:02:25;8.27;;;2.80;;
72801;SDS011;61891;55.818;37.084;2022-12-18T17:04:54;3.65;;;1.92;;
72801;SDS011;61891;55.818;37.084;2022-12-18T17:07:21;8.52;;;3.13;;
72801;SDS011;61891;55.818;37.084;2022-12-18T17:09:48;7.53;;;3.08;;
72801;SDS011;61891;55.818;37.084;2022-12-18T17:12:18;11.07;;;3.30;;
72801;SDS011;61891;55.818;37.084;2022-12-18T17:14:44;7.38;;;3.08;;